< < Back
Terminal Aerodrome Forecast


Current Version              Previous Versions:   1  2  3  4  5  6  7  8  9  

Terminal Aerodrome Forecast

589
FTUS44 KBMX 272035 AAA
TAFTCL
TAF AMD
KTCL 272035Z 2721/2818 33012G18KT P6SM BKN060
     FM280400 33006KT P6SM SCT100=

Latest METAR

000
SAUS70 KWBC 282200 RRI
MTRTCL
METAR KTCL 282153Z 29005KT 10SM FEW060 SCT070 OVC090 08/M04 A3026 RMK
AO2 SLP246 T00831039


USA.gov is the U.S. government's official web portal to all federal, state and local government web resources and services.